createdAt,value
2022-08-06T00:02:25.888Z,73.32
2022-08-06T00:05:00.597Z,78.78
2022-08-06T00:07:28.366Z,86.90
2022-08-06T00:10:01.672Z,99.47
2022-08-06T00:12:32.311Z,98.47
2022-08-06T00:15:00.178Z,111.95
2022-08-06T00:17:31.470Z,129.02
2022-08-06T00:20:01.276Z,132.70
2022-08-06T00:22:29.051Z,142.05
2022-08-06T00:24:56.656Z,154.98
2022-08-06T00:27:29.481Z,163.32
2022-08-06T00:30:14.867Z,177.20
2022-08-06T00:32:51.283Z,163.65
2022-08-06T00:35:21.802Z,160.15
2022-08-06T00:37:57.819Z,171.43
2022-08-06T00:40:30.887Z,175.02
2022-08-06T00:43:06.345Z,171.88
2022-08-06T00:45:38.350Z,174.45
2022-08-06T00:48:23.169Z,184.55
2022-08-06T00:51:00.712Z,191.80
2022-08-06T00:53:27.964Z,180.67
2022-08-06T00:56:08.910Z,188.02
2022-08-06T00:58:40.723Z,184.63
2022-08-06T01:01:16.728Z,174.77
2022-08-06T01:03:51.775Z,190.80
2022-08-06T01:06:55.599Z,186.15
2022-08-06T01:09:09.986Z,191.02
2022-08-06T01:11:38.396Z,203.20
2022-08-06T01:14:05.864Z,191.73
2022-08-06T01:16:49.090Z,192.80
2022-08-06T01:19:29.306Z,191.57
2022-08-06T01:22:31.575Z,193.63
2022-08-06T01:25:46.168Z,205.15
2022-08-06T01:28:28.383Z,203.45
2022-08-06T01:31:29.996Z,208.97
2022-08-06T01:34:15.617Z,221.37
2022-08-06T01:36:48.943Z,224.13
2022-08-06T01:39:21.514Z,214.48
2022-08-06T01:41:59.161Z,224.13
2022-08-06T01:44:40.073Z,217.85
2022-08-06T01:47:16.667Z,211.05
2022-08-06T01:50:01.725Z,220.77
2022-08-06T01:52:34.552Z,218.07
2022-08-06T01:55:02.823Z,200.15
2022-08-06T01:58:09.973Z,202.80
2022-08-06T02:00:29.697Z,199.95
2022-08-06T02:03:04.155Z,209.15
2022-08-06T02:05:33.474Z,206.65
2022-08-06T02:08:36.923Z,204.13
2022-08-06T02:12:01.042Z,221.35
2022-08-06T02:13:58.252Z,205.18
2022-08-06T02:16:29.244Z,208.65
2022-08-06T02:18:57.619Z,224.80
2022-08-06T02:21:32.894Z,215.32
2022-08-06T02:24:03.691Z,209.82
2022-08-06T02:26:32.954Z,203.32
2022-08-06T02:29:02.650Z,199.00
2022-08-06T02:31:29.449Z,215.75
2022-08-06T02:34:14.904Z,218.73
2022-08-06T02:36:50.248Z,227.23
2022-08-06T02:39:30.232Z,221.50
2022-08-06T02:42:18.776Z,217.27
2022-08-06T02:45:00.285Z,220.02
2022-08-06T02:48:01.167Z,216.35
2022-08-06T02:50:41.628Z,215.27
2022-08-06T02:53:24.265Z,213.15
2022-08-06T02:56:00.724Z,221.15
2022-08-06T02:58:45.450Z,231.57
2022-08-06T03:01:29.059Z,209.50
2022-08-06T03:04:00.110Z,207.50
2022-08-06T03:06:30.705Z,200.48
2022-08-06T03:08:58.926Z,188.80
2022-08-06T03:11:31.196Z,201.82
2022-08-06T03:14:31.777Z,203.00
2022-08-06T03:16:52.325Z,190.20
2022-08-06T03:19:57.519Z,204.73
2022-08-06T03:22:11.669Z,207.70
2022-08-06T03:24:47.009Z,216.15
2022-08-06T03:27:17.290Z,216.77
2022-08-06T03:29:49.761Z,228.07
2022-08-06T03:32:51.194Z,218.60
2022-08-06T03:35:49.087Z,220.68
2022-08-06T03:38:02.681Z,221.70
2022-08-06T03:40:31.425Z,222.25
2022-08-06T03:43:00.496Z,216.77
2022-08-06T03:45:45.291Z,227.35
2022-08-06T03:48:36.250Z,222.45
2022-08-06T03:51:11.027Z,233.55
2022-08-06T03:53:44.852Z,209.23
2022-08-06T03:56:28.773Z,207.82
2022-08-06T03:59:04.849Z,200.40
2022-08-06T04:01:43.165Z,190.70
2022-08-06T04:04:27.257Z,189.10
2022-08-06T04:07:00.508Z,179.98
2022-08-06T04:09:33.851Z,180.93
2022-08-06T04:12:58.885Z,194.82
2022-08-06T04:15:08.377Z,198.60
2022-08-06T04:17:40.524Z,202.13
2022-08-06T04:20:08.666Z,210.40
2022-08-06T04:22:59.676Z,203.35
2022-08-06T04:25:25.124Z,208.82
2022-08-06T04:27:54.330Z,222.93
2022-08-06T04:30:27.497Z,212.77
2022-08-06T04:33:01.194Z,216.35
2022-08-06T04:36:07.920Z,202.93
2022-08-06T04:38:28.083Z,179.27
2022-08-06T04:40:57.560Z,172.77
2022-08-06T04:43:37.990Z,161.27
2022-08-06T04:46:16.671Z,142.87
2022-08-06T04:48:47.925Z,144.70
2022-08-06T04:51:17.285Z,131.70
2022-08-06T04:54:06.074Z,89.53
2022-08-06T04:56:37.486Z,103.40
2022-08-06T04:59:09.441Z,104.13
2022-08-06T05:01:40.935Z,98.97
2022-08-06T05:04:23.747Z,88.28
2022-08-06T05:06:58.479Z,80.80
2022-08-06T05:09:42.837Z,86.00
2022-08-06T05:12:26.453Z,83.65
2022-08-06T05:15:09.010Z,84.20
2022-08-06T05:17:39.792Z,90.07
2022-08-06T05:20:26.308Z,86.93
2022-08-06T05:23:01.332Z,71.65
2022-08-06T05:25:35.949Z,72.40
2022-08-06T05:28:11.262Z,63.90
2022-08-06T05:30:49.844Z,63.25
2022-08-06T05:33:30.817Z,71.40
2022-08-06T05:36:02.608Z,72.93
2022-08-06T05:38:36.432Z,66.35
2022-08-06T05:41:11.886Z,74.43
2022-08-06T05:43:59.880Z,74.15
2022-08-06T05:46:31.121Z,83.47
2022-08-06T05:49:57.485Z,73.78
2022-08-06T05:52:26.407Z,71.53
2022-08-06T05:55:25.604Z,63.15
2022-08-06T05:58:08.827Z,67.63
2022-08-06T06:00:43.680Z,57.30
2022-08-06T06:03:24.578Z,70.80
2022-08-06T06:06:06.786Z,55.00
2022-08-06T06:08:57.800Z,44.10
2022-08-06T06:11:55.431Z,44.17
2022-08-06T06:14:37.903Z,46.15
2022-08-06T06:17:20.535Z,42.78
2022-08-06T06:20:08.660Z,22.73
2022-08-06T06:23:20.459Z,21.88
2022-08-06T06:26:32.902Z,20.73
2022-08-06T06:30:06.273Z,20.52
2022-08-06T06:32:30.520Z,15.88
2022-08-06T06:35:22.445Z,19.75
2022-08-06T06:38:00.438Z,22.23
2022-08-06T06:40:47.016Z,16.90
2022-08-06T06:43:49.261Z,16.88
2022-08-06T06:46:38.566Z,13.57
2022-08-06T06:50:00.198Z,13.85
2022-08-06T06:52:12.786Z,9.38
2022-08-06T06:54:59.620Z,8.32
2022-08-06T06:57:43.144Z,6.50
2022-08-06T07:00:45.689Z,7.00
2022-08-06T07:03:02.763Z,7.40
2022-08-06T07:06:02.958Z,6.95
2022-08-06T07:08:32.194Z,8.60
2022-08-06T07:11:07.282Z,6.25
2022-08-06T07:13:47.802Z,8.27
2022-08-06T07:16:35.268Z,7.57
2022-08-06T07:19:10.234Z,6.82
2022-08-06T07:21:42.216Z,7.70
2022-08-06T07:24:35.921Z,7.20
2022-08-06T07:27:00.908Z,7.63
2022-08-06T07:29:49.139Z,12.07
2022-08-06T07:32:31.462Z,8.67
2022-08-06T07:35:00.585Z,7.20
2022-08-06T07:37:37.737Z,12.40
2022-08-06T07:40:10.201Z,8.57
2022-08-06T07:42:39.181Z,10.60
2022-08-06T07:45:16.373Z,10.40
2022-08-06T07:47:54.217Z,8.57
2022-08-06T07:50:24.831Z,4.25
2022-08-06T07:52:56.430Z,3.77
2022-08-06T07:55:37.388Z,7.50
2022-08-06T07:58:08.548Z,5.72
2022-08-06T08:00:38.579Z,9.55
2022-08-06T08:03:55.868Z,6.70
2022-08-06T08:06:21.578Z,8.00
2022-08-06T08:08:57.101Z,9.50
2022-08-06T08:11:38.365Z,7.20
2022-08-06T08:14:15.482Z,6.57
2022-08-06T08:16:43.640Z,3.55
2022-08-06T08:19:35.037Z,6.10
2022-08-06T08:22:17.349Z,6.93
2022-08-06T08:24:53.962Z,5.85
2022-08-06T08:27:23.522Z,5.32
2022-08-06T08:29:56.869Z,4.80
2022-08-06T08:32:24.883Z,6.88
2022-08-06T08:34:53.011Z,5.83
2022-08-06T08:37:20.770Z,4.57
2022-08-06T08:39:47.837Z,6.03
2022-08-06T08:42:38.334Z,4.63
2022-08-06T08:45:13.078Z,6.97
2022-08-06T08:47:54.000Z,5.93
2022-08-06T08:50:28.209Z,10.52
2022-08-06T08:53:09.582Z,14.27
2022-08-06T08:57:10.526Z,5.32
2022-08-06T08:58:41.855Z,7.50
2022-08-06T09:01:51.345Z,6.43
2022-08-06T09:03:59.094Z,5.18
2022-08-06T09:06:30.788Z,7.03
2022-08-06T09:09:05.519Z,5.07
2022-08-06T09:12:04.288Z,3.08
2022-08-06T09:14:28.237Z,4.15
2022-08-06T09:17:00.862Z,3.92
2022-08-06T09:19:37.908Z,4.15
2022-08-06T09:22:08.821Z,4.77
2022-08-06T09:24:36.889Z,4.85
2022-08-06T09:27:45.125Z,4.43
2022-08-06T09:30:00.611Z,3.10
2022-08-06T09:32:57.057Z,3.63
2022-08-06T09:35:44.595Z,3.35
2022-08-06T09:38:17.319Z,3.42
2022-08-06T09:41:24.251Z,4.90
2022-08-06T09:44:03.849Z,4.13
2022-08-06T09:46:49.072Z,3.95
2022-08-06T09:49:48.059Z,3.10
2022-08-06T09:52:17.269Z,5.28
2022-08-06T09:54:46.387Z,6.15
2022-08-06T09:57:15.336Z,2.38
2022-08-06T09:59:50.213Z,2.17
2022-08-06T10:02:23.618Z,3.45
2022-08-06T10:05:19.536Z,5.65
2022-08-06T10:08:13.958Z,5.75
2022-08-06T10:10:52.357Z,5.22
2022-08-06T10:13:39.271Z,3.97
2022-08-06T10:16:20.609Z,4.97
2022-08-06T10:18:55.452Z,6.03
2022-08-06T10:21:41.769Z,4.80
2022-08-06T10:24:26.167Z,4.90
2022-08-06T10:27:15.156Z,4.15
2022-08-06T10:29:43.381Z,3.22
2022-08-06T10:32:15.847Z,5.40
2022-08-06T10:34:45.656Z,4.47
2022-08-06T10:37:49.608Z,3.42
2022-08-06T10:40:09.868Z,4.13
2022-08-06T10:42:40.379Z,3.72
2022-08-06T10:45:13.277Z,5.03
2022-08-06T10:48:58.967Z,4.55
2022-08-06T10:50:44.702Z,4.32
2022-08-06T10:53:20.621Z,5.38
2022-08-06T10:56:08.919Z,6.25
2022-08-06T10:58:37.839Z,5.00
2022-08-06T11:01:16.030Z,3.67
2022-08-06T11:04:26.354Z,5.40
2022-08-06T11:06:53.331Z,5.15
2022-08-06T11:09:59.854Z,3.85
2022-08-06T11:12:41.262Z,4.45
2022-08-06T11:15:17.973Z,4.23
2022-08-06T11:18:03.477Z,6.88
2022-08-06T11:20:37.399Z,5.15
2022-08-06T11:23:11.839Z,5.50
2022-08-06T11:25:58.933Z,7.38
2022-08-06T11:28:29.806Z,6.63
2022-08-06T11:31:03.057Z,3.97
2022-08-06T11:33:36.447Z,4.45
2022-08-06T11:36:10.779Z,3.97
2022-08-06T11:38:48.477Z,4.82
2022-08-06T11:41:55.398Z,3.63
2022-08-06T11:44:38.484Z,3.80
2022-08-06T11:47:14.106Z,5.07
2022-08-06T11:49:44.867Z,5.28
2022-08-06T11:52:34.305Z,4.82
2022-08-06T11:55:08.483Z,3.85
2022-08-06T11:57:42.047Z,5.50
2022-08-06T12:00:20.993Z,4.35
2022-08-06T12:02:56.672Z,2.88
2022-08-06T12:05:23.943Z,4.15
2022-08-06T12:08:14.514Z,5.70
2022-08-06T12:11:20.543Z,4.43
2022-08-06T12:13:57.546Z,5.47
2022-08-06T12:16:39.423Z,6.90
2022-08-06T12:19:12.982Z,4.53
2022-08-06T12:21:44.676Z,4.60
2022-08-06T12:24:15.929Z,5.40
2022-08-06T12:26:43.910Z,4.50
2022-08-06T12:29:11.202Z,4.10
2022-08-06T12:31:50.237Z,4.88
2022-08-06T12:34:27.881Z,5.97
2022-08-06T12:36:55.050Z,3.95
2022-08-06T12:39:45.677Z,3.75
2022-08-06T12:42:53.202Z,5.87
2022-08-06T12:46:04.359Z,5.80
2022-08-06T12:48:11.322Z,5.50
2022-08-06T12:50:43.403Z,4.70
2022-08-06T12:53:15.418Z,4.68
2022-08-06T12:55:55.771Z,6.43
2022-08-06T12:58:42.416Z,5.60
2022-08-06T13:02:08.654Z,4.20
2022-08-06T13:04:09.183Z,4.57
2022-08-06T13:06:37.762Z,3.42
2022-08-06T13:09:08.151Z,8.77
2022-08-06T13:11:41.628Z,3.30
2022-08-06T13:14:18.437Z,5.57
2022-08-06T13:16:57.221Z,4.10
2022-08-06T13:19:28.208Z,4.40
2022-08-06T13:22:03.005Z,4.43
2022-08-06T13:24:30.945Z,4.93
2022-08-06T13:27:03.009Z,6.95
2022-08-06T13:30:30.715Z,6.97
2022-08-06T13:32:33.339Z,6.05
2022-08-06T13:35:17.853Z,4.73
2022-08-06T13:37:57.544Z,6.13
2022-08-06T13:40:41.947Z,4.43
2022-08-06T13:43:39.819Z,6.35
2022-08-06T13:46:15.369Z,4.57
2022-08-06T13:48:49.710Z,7.40
2022-08-06T13:51:27.275Z,5.28
2022-08-06T13:53:57.460Z,7.03
2022-08-06T13:56:29.103Z,6.95
2022-08-06T13:58:58.880Z,7.57
2022-08-06T14:01:44.126Z,4.40
2022-08-06T14:04:14.210Z,6.35
2022-08-06T14:06:44.843Z,6.97
2022-08-06T14:09:19.392Z,4.80
2022-08-06T14:11:58.506Z,5.72
2022-08-06T14:14:27.808Z,6.28
2022-08-06T14:16:57.080Z,6.43
2022-08-06T14:20:14.740Z,6.90
2022-08-06T14:22:11.149Z,5.97
2022-08-06T14:24:39.378Z,6.20
2022-08-06T14:27:14.870Z,5.07
2022-08-06T14:30:27.718Z,8.88
2022-08-06T14:32:32.352Z,11.37
2022-08-06T14:35:03.644Z,12.83
2022-08-06T14:37:43.316Z,15.25
2022-08-06T14:40:23.726Z,9.93
2022-08-06T14:43:17.569Z,7.40
2022-08-06T14:45:44.210Z,7.85
2022-08-06T14:48:10.983Z,6.88
2022-08-06T14:50:42.077Z,6.53
2022-08-06T14:53:16.257Z,7.28
2022-08-06T14:56:07.016Z,7.80
2022-08-06T14:58:32.168Z,4.05
2022-08-06T15:00:59.197Z,8.85
2022-08-06T15:03:33.231Z,4.85
2022-08-06T15:06:06.198Z,5.85
2022-08-06T15:08:35.700Z,5.60
2022-08-06T15:11:05.860Z,6.20
2022-08-06T15:13:36.906Z,7.18
2022-08-06T15:16:11.027Z,8.07
2022-08-06T15:19:10.321Z,9.82
2022-08-06T15:21:51.071Z,5.80
2022-08-06T15:24:21.718Z,5.00
2022-08-06T15:26:51.824Z,9.52
2022-08-06T15:29:25.420Z,4.50
2022-08-06T15:31:52.309Z,7.88
2022-08-06T15:34:20.251Z,6.03
2022-08-06T15:37:02.938Z,6.00
2022-08-06T15:39:53.139Z,5.43
2022-08-06T15:42:23.830Z,4.17
2022-08-06T15:44:54.454Z,5.75
2022-08-06T15:47:32.035Z,8.15
2022-08-06T15:50:03.176Z,6.03
2022-08-06T15:52:33.595Z,5.38
2022-08-06T15:55:16.528Z,3.58
2022-08-06T15:58:06.837Z,5.50
2022-08-06T16:00:36.590Z,7.17
2022-08-06T16:03:06.613Z,4.30
2022-08-06T16:06:11.096Z,5.20
2022-08-06T16:08:22.989Z,2.60
2022-08-06T16:11:02.571Z,3.20
2022-08-06T16:13:36.295Z,3.95
2022-08-06T16:16:05.799Z,3.70
2022-08-06T16:18:34.118Z,2.42
2022-08-06T16:21:05.977Z,2.42
2022-08-06T16:23:55.708Z,2.42
2022-08-06T16:26:40.611Z,1.58
2022-08-06T16:29:08.761Z,3.20
2022-08-06T16:31:38.028Z,11.73
2022-08-06T16:34:14.458Z,3.15
2022-08-06T16:36:42.714Z,3.22
2022-08-06T16:39:12.495Z,2.83
2022-08-06T16:41:58.998Z,1.80
2022-08-06T16:44:34.805Z,3.37
2022-08-06T16:47:06.552Z,2.38
2022-08-06T16:49:59.348Z,2.03
2022-08-06T16:52:42.768Z,3.83
2022-08-06T16:55:09.222Z,4.53
2022-08-06T16:57:37.967Z,4.07
2022-08-06T17:00:09.278Z,4.03
2022-08-06T17:02:42.354Z,3.72
2022-08-06T17:05:21.635Z,2.55
2022-08-06T17:10:39.724Z,6.00
2022-08-06T17:13:09.154Z,7.28
2022-08-06T17:15:37.570Z,8.23
2022-08-06T17:18:04.961Z,6.53
2022-08-06T17:20:31.704Z,10.82
2022-08-06T17:25:50.948Z,8.40
2022-08-06T17:28:18.382Z,12.35
2022-08-06T17:30:45.044Z,15.85
2022-08-06T17:33:19.580Z,17.20
2022-08-06T17:36:30.691Z,13.20
2022-08-06T17:38:36.569Z,12.02
2022-08-06T17:41:11.687Z,16.35
2022-08-06T17:43:56.128Z,16.23
2022-08-06T17:46:26.511Z,14.70
2022-08-06T17:48:54.890Z,12.98
2022-08-06T17:51:23.074Z,19.13
2022-08-06T17:53:53.174Z,5.90
2022-08-06T17:56:29.775Z,15.05
2022-08-06T17:59:16.930Z,14.57
2022-08-06T18:01:49.958Z,7.13
2022-08-06T18:04:31.060Z,19.05
2022-08-06T18:07:11.693Z,13.93
2022-08-06T18:10:10.474Z,11.35
2022-08-06T18:12:31.720Z,9.82
2022-08-06T18:14:59.294Z,10.25
2022-08-06T18:17:59.581Z,9.98
2022-08-06T18:20:13.097Z,6.78
2022-08-06T18:22:43.641Z,5.72
2022-08-06T18:25:14.980Z,4.20
2022-08-06T18:27:55.597Z,7.95
2022-08-06T18:30:36.594Z,8.13
2022-08-06T18:33:12.778Z,6.20
2022-08-06T18:35:45.877Z,11.13
2022-08-06T18:38:32.225Z,18.52
2022-08-06T18:41:06.268Z,28.30
2022-08-06T18:43:49.763Z,19.98
2022-08-06T18:46:56.230Z,22.20
2022-08-06T18:49:26.879Z,35.10
2022-08-06T18:52:05.970Z,25.30
2022-08-06T18:54:56.969Z,12.20
2022-08-06T18:57:38.170Z,8.85
2022-08-06T19:00:18.405Z,26.73
2022-08-06T19:02:48.884Z,9.90
2022-08-06T19:05:17.109Z,8.60
2022-08-06T19:07:53.750Z,9.70
2022-08-06T19:10:24.345Z,9.15
2022-08-06T19:12:54.753Z,10.33
2022-08-06T19:15:24.388Z,10.45
2022-08-06T19:18:14.372Z,16.15
2022-08-06T19:20:38.127Z,15.20
2022-08-06T19:23:06.483Z,13.52
2022-08-06T19:25:52.090Z,8.15
2022-08-06T19:28:34.736Z,9.53
2022-08-06T19:31:06.992Z,9.13
2022-08-06T19:33:37.159Z,10.77
2022-08-06T19:36:30.828Z,6.75
2022-08-06T19:38:53.593Z,10.90
2022-08-06T19:42:00.210Z,8.05
2022-08-06T19:44:28.185Z,7.75
2022-08-06T19:46:56.358Z,7.32
2022-08-06T19:49:23.400Z,11.27
2022-08-06T19:52:04.648Z,5.97
2022-08-06T19:54:35.718Z,5.90
2022-08-06T19:57:06.390Z,9.65
2022-08-06T20:00:51.251Z,6.60
2022-08-06T20:02:28.717Z,10.07
2022-08-06T20:04:57.548Z,7.95
2022-08-06T20:07:34.388Z,9.95
2022-08-06T20:10:03.145Z,7.93
2022-08-06T20:12:38.267Z,10.95
2022-08-06T20:15:08.958Z,11.15
2022-08-06T20:17:45.944Z,8.82
2022-08-06T20:20:29.141Z,5.40
2022-08-06T20:23:08.421Z,8.25
2022-08-06T20:26:10.442Z,8.73
2022-08-06T20:29:08.113Z,7.72
2022-08-06T20:31:16.715Z,8.60
2022-08-06T20:33:58.986Z,7.55
2022-08-06T20:36:30.687Z,5.78
2022-08-06T20:38:58.243Z,10.55
2022-08-06T20:41:57.560Z,12.13
2022-08-06T20:44:14.305Z,6.10
2022-08-06T20:47:44.313Z,11.00
2022-08-06T20:50:03.839Z,8.30
2022-08-06T20:52:19.228Z,5.82
2022-08-06T20:54:51.791Z,9.95
2022-08-06T20:57:27.772Z,8.00
2022-08-06T20:59:58.211Z,7.73
2022-08-06T21:02:31.849Z,8.75
2022-08-06T21:05:14.082Z,10.93
2022-08-06T21:07:57.788Z,6.47
2022-08-06T21:10:31.181Z,13.80
2022-08-06T21:13:06.722Z,6.67
2022-08-06T21:15:54.483Z,17.15
2022-08-06T21:18:24.022Z,7.80
2022-08-06T21:20:53.146Z,14.35
2022-08-06T21:23:42.088Z,9.40
2022-08-06T21:26:08.309Z,7.78
2022-08-06T21:28:42.212Z,7.55
2022-08-06T21:31:10.421Z,8.55
2022-08-06T21:33:52.748Z,7.53
2022-08-06T21:36:26.905Z,10.77
2022-08-06T21:38:58.078Z,9.18
2022-08-06T21:41:58.385Z,7.82
2022-08-06T21:44:24.178Z,10.80
2022-08-06T21:46:58.612Z,7.22
2022-08-06T21:50:00.458Z,10.60
2022-08-06T21:52:27.518Z,13.27
2022-08-06T21:54:57.440Z,9.43
2022-08-06T21:57:25.327Z,10.93
2022-08-06T21:59:53.313Z,13.73
2022-08-06T22:02:28.041Z,12.80
2022-08-06T22:05:00.497Z,17.63
2022-08-06T22:08:04.611Z,10.10
2022-08-06T22:10:28.862Z,13.40
2022-08-06T22:13:12.260Z,9.95
2022-08-06T22:15:46.743Z,6.97
2022-08-06T22:18:16.795Z,9.65
2022-08-06T22:20:45.845Z,9.37
2022-08-06T22:23:15.936Z,11.35
2022-08-06T22:25:43.061Z,13.88
2022-08-06T22:28:11.727Z,8.93
2022-08-06T22:30:52.568Z,13.73
2022-08-06T22:33:23.647Z,11.50
2022-08-06T22:35:58.464Z,14.35
2022-08-06T22:38:39.008Z,7.82
2022-08-06T22:41:05.666Z,11.05
2022-08-06T22:43:51.880Z,8.50
2022-08-06T22:46:25.527Z,8.00
2022-08-06T22:48:52.984Z,10.77
2022-08-06T22:51:28.705Z,9.68
2022-08-06T22:54:29.561Z,8.13
2022-08-06T22:57:05.048Z,7.45
2022-08-06T23:00:06.959Z,6.82
2022-08-06T23:02:19.678Z,7.90
2022-08-06T23:04:46.764Z,10.32
2022-08-06T23:07:21.443Z,11.32
2022-08-06T23:09:53.660Z,10.75
2022-08-06T23:12:25.399Z,10.30
2022-08-06T23:14:59.034Z,13.50
2022-08-06T23:17:26.158Z,15.77
2022-08-06T23:20:11.809Z,21.10
2022-08-06T23:22:39.443Z,21.83
2022-08-06T23:26:02.068Z,25.33
2022-08-06T23:27:54.923Z,26.70
2022-08-06T23:30:22.120Z,29.77
2022-08-06T23:32:49.466Z,30.83
2022-08-06T23:35:35.830Z,31.55
2022-08-06T23:38:31.376Z,34.65
2022-08-06T23:40:51.846Z,36.20
2022-08-06T23:43:19.439Z,34.35
2022-08-06T23:45:47.201Z,38.45
2022-08-06T23:48:15.201Z,40.72
2022-08-06T23:50:52.895Z,41.70
2022-08-06T23:54:06.359Z,47.90
2022-08-06T23:56:13.120Z,42.88
2022-08-06T23:58:49.018Z,50.15
